Pangborn Memorial Airport
KEAT : now visible

Airfield :











YOU CAN JOIN US ON...

 
LOGIN :

Register | Disclaimer

   EN    FR    IT 

 









Legend :    VFR   Marginal VFR   IFR   Intensive IFR   Very Intensive IFR
Visi :
Ceiling :
>= 8 km
>= 3000ft
5 to 8 km
1000 to 3000 ft
1500m to 5 km
500 to 1000 ft
800 to 1500m
200 to 500 ft
< 800m
< 200 ft
Symbols :   Thunderstorms  Fog  Heavy snow  Heavy precipitations  Wind > 20 kt






- Airport Elevation : 1249 ft


KEAT - Pangborn Memorial

CURRENT METAR :
  • 291255Z AUTO 02003KT 10SM OVC006 01/00 A3022 RMK AO2 SLP243 T00110000 $

EXPIRED METARs :
  • 291155Z AUTO 31004KT 10SM OVC008 01/00 A3024 RMK AO2 SLP252 70001 T00110000 10017 20006 53004 $
  • 291055Z AUTO 00000KT 10SM OVC008 01/00 A3023 RMK AO2 SLP248 T00110000 $

TAF KEAT
Valid from the 29 at 12:00 until the 30 at 12:00 UTC


291141Z 2912/3012 VRB02KT P6SM OVC008
TEMPO 2918/2922 5SM -RA BR OVC012
FM292200 15005KT P6SM SCT030 BKN050
FM300200 32007KT P6SM SKC



MET'MAP, your aeronautical weather chart ! - Copyright ORBIFLY December 2007 - Disclaimer

ORBIFLY MET'MAP TEAM :

Programming & Development : Alexandra Zaïnal
Concept & original design : Baudouin d'Aumeries
Assistance for programming : Marc-Olivier Méhu
Technical & hardware support : Manuel Goepfert

Contact : metmap@orbifly.com




SOURCES & CREDITS :

   NOAA       Earth
Advisory